4N2 weather

Middlesex Valley Airport
Middlesex, New York, United States

Public forecast

Using degrees Fahrenheit for public forecast. Weather courtesy of forecast.io.

METAR (pilot weather report)

Closest report is Penn Yan Airport, 10.7 nm (19.9 km) ESE. Retrieved 2019/05/19 12:53 UTC (59 minutes ago):

KPEO 191253Z AUTO 20011KT 10SM CLR 21/17 A2993 RMK AO2 SLP133 T02110167

TAF (pilot weather forecast)

Closest forecast is Greater Rochester International Airport, 30.1 nm (55.8 km) NW. Retrieved 2019/05/19 12:22 UTC (1 hour ago):

TAF KROC 191120Z 1912/2012 20012G22KT P6SM SCT100 FM191400 23008KT P6SM BKN050 FM191700 23005KT 6SM -SHRA VCTS BKN040CB FM200000 20008KT P6SM VCSH BKN100 WS015/25040KT